createdAt,value
2022-12-18T00:00:03.716Z,78.58
2022-12-18T00:02:41.427Z,78.97
2022-12-18T00:05:09.549Z,77.88
2022-12-18T00:07:37.306Z,78.96
2022-12-18T00:10:05.604Z,79.34
2022-12-18T00:12:33.654Z,79.26
2022-12-18T00:15:01.395Z,76.60
2022-12-18T00:17:29.104Z,73.92
2022-12-18T00:19:57.392Z,73.58
2022-12-18T00:22:25.058Z,76.86
2022-12-18T00:24:52.693Z,77.84
2022-12-18T00:27:20.721Z,78.01
2022-12-18T00:29:49.235Z,78.01
2022-12-18T00:32:16.921Z,77.80
2022-12-18T00:34:44.915Z,77.74
2022-12-18T00:37:16.837Z,76.90
2022-12-18T00:39:51.868Z,77.50
2022-12-18T00:42:20.830Z,77.04
2022-12-18T00:44:49.222Z,76.93
2022-12-18T00:47:16.898Z,76.26
2022-12-18T00:49:44.630Z,76.21
2022-12-18T00:52:12.572Z,75.44
2022-12-18T00:54:40.342Z,76.31
2022-12-18T00:57:08.036Z,77.17
2022-12-18T00:59:36.034Z,77.54
2022-12-18T01:02:03.810Z,76.13
2022-12-18T01:04:35.418Z,76.27
2022-12-18T01:07:03.327Z,76.75
2022-12-18T01:09:33.141Z,77.16
2022-12-18T01:12:00.770Z,77.25
2022-12-18T01:14:28.809Z,77.08
2022-12-18T01:16:56.501Z,76.91
2022-12-18T01:19:27.963Z,77.47
2022-12-18T01:21:55.958Z,76.87
2022-12-18T01:24:23.751Z,76.56
2022-12-18T01:26:51.501Z,76.92
2022-12-18T01:29:19.387Z,76.35
2022-12-18T01:31:47.211Z,76.55
2022-12-18T01:34:14.967Z,76.95
2022-12-18T01:36:42.871Z,76.61
2022-12-18T01:39:12.738Z,76.94
2022-12-18T01:41:43.111Z,76.29
2022-12-18T01:44:48.946Z,76.49
2022-12-18T01:47:45.529Z,76.48
2022-12-18T01:50:21.561Z,76.36
2022-12-18T01:53:16.528Z,76.25
2022-12-18T01:55:55.866Z,75.48
2022-12-18T01:58:45.356Z,75.94
2022-12-18T02:01:13.572Z,77.12
2022-12-18T02:03:45.314Z,77.15
2022-12-18T02:06:31.686Z,78.12
2022-12-18T02:09:10.976Z,77.56
2022-12-18T02:11:55.173Z,77.51
2022-12-18T02:14:22.981Z,77.88
2022-12-18T02:16:59.821Z,77.81
2022-12-18T02:19:38.485Z,76.30
2022-12-18T02:22:19.127Z,75.84
2022-12-18T02:25:06.510Z,75.89
2022-12-18T02:27:35.704Z,76.92
2022-12-18T02:30:05.389Z,77.38
2022-12-18T02:32:36.898Z,77.30
2022-12-18T02:35:07.720Z,77.19
2022-12-18T02:37:36.944Z,77.51
2022-12-18T02:40:06.229Z,75.38
2022-12-18T02:42:34.333Z,73.19
2022-12-18T02:45:02.895Z,74.06
2022-12-18T02:47:35.387Z,73.77
2022-12-18T02:50:39.445Z,77.62
2022-12-18T02:53:12.614Z,77.37
2022-12-18T02:56:00.353Z,77.83
2022-12-18T02:58:54.637Z,73.96
2022-12-18T03:01:42.546Z,72.80
2022-12-18T03:04:19.539Z,76.00
2022-12-18T03:06:50.615Z,76.81
2022-12-18T03:09:22.486Z,76.51
2022-12-18T03:11:56.232Z,74.49
2022-12-18T03:14:25.116Z,71.69
2022-12-18T03:16:55.181Z,71.52
2022-12-18T03:19:26.900Z,74.86
2022-12-18T03:21:58.893Z,76.95
2022-12-18T03:24:29.112Z,77.06
2022-12-18T03:27:03.616Z,76.75
2022-12-18T03:29:45.377Z,77.08
2022-12-18T03:32:22.403Z,76.65
2022-12-18T03:34:52.952Z,77.10
2022-12-18T03:37:21.961Z,76.72
2022-12-18T03:39:49.671Z,77.52
2022-12-18T03:42:23.326Z,77.70
2022-12-18T03:44:55.452Z,76.87
2022-12-18T03:47:26.001Z,76.50
2022-12-18T03:50:19.027Z,77.54
2022-12-18T03:52:58.177Z,76.78
2022-12-18T03:55:27.511Z,77.25
2022-12-18T03:57:56.626Z,78.03
2022-12-18T04:00:25.964Z,78.06
2022-12-18T04:02:55.761Z,77.50
2022-12-18T04:05:25.692Z,78.46
2022-12-18T04:07:54.262Z,78.21
2022-12-18T04:10:22.849Z,77.87
2022-12-18T04:12:50.506Z,78.26
2022-12-18T04:15:18.172Z,78.03
2022-12-18T04:17:50.319Z,77.14
2022-12-18T04:20:18.644Z,77.65
2022-12-18T04:22:46.695Z,78.15
2022-12-18T04:25:14.535Z,78.85
2022-12-18T04:27:47.813Z,79.13
2022-12-18T04:30:15.721Z,79.78
2022-12-18T04:32:46.486Z,79.73
2022-12-18T04:35:17.491Z,77.12
2022-12-18T04:37:46.185Z,77.11
2022-12-18T04:40:13.890Z,79.43
2022-12-18T04:42:42.107Z,79.88
2022-12-18T04:45:10.071Z,80.23
2022-12-18T04:47:37.827Z,80.55
2022-12-18T04:50:06.333Z,79.65
2022-12-18T04:52:34.052Z,75.67
2022-12-18T04:55:01.726Z,78.42
2022-12-18T04:57:29.618Z,75.73
2022-12-18T04:59:57.375Z,75.88
2022-12-18T05:02:25.119Z,78.66
2022-12-18T05:04:53.157Z,78.85
2022-12-18T05:07:20.733Z,79.05
2022-12-18T05:09:48.351Z,79.27
2022-12-18T05:12:16.332Z,74.39
2022-12-18T05:14:43.912Z,75.90
2022-12-18T05:17:11.507Z,78.21
2022-12-18T05:19:39.762Z,78.41
2022-12-18T05:22:07.491Z,79.02
2022-12-18T05:24:35.513Z,78.68
2022-12-18T05:27:03.674Z,78.86
2022-12-18T05:29:31.409Z,78.79
2022-12-18T05:31:59.041Z,79.09
2022-12-18T05:34:26.969Z,79.06
2022-12-18T05:36:54.597Z,79.12
2022-12-18T05:39:22.285Z,79.05
2022-12-18T05:41:50.175Z,78.74
2022-12-18T05:44:17.852Z,78.69
2022-12-18T05:46:45.526Z,77.52
2022-12-18T05:49:13.382Z,78.37
2022-12-18T05:51:41.248Z,78.60
2022-12-18T05:54:09.161Z,78.80
2022-12-18T05:56:37.019Z,79.66
2022-12-18T05:59:05.094Z,79.96
2022-12-18T06:01:32.824Z,80.04
2022-12-18T06:04:00.875Z,79.77
2022-12-18T06:06:29.195Z,79.96
2022-12-18T06:08:58.187Z,79.90
2022-12-18T06:11:27.266Z,78.44
2022-12-18T06:13:59.031Z,79.31
2022-12-18T06:16:30.872Z,80.59
2022-12-18T06:19:04.830Z,81.02
2022-12-18T06:21:33.137Z,80.94
2022-12-18T06:24:01.505Z,81.90
2022-12-18T06:26:29.109Z,81.55
2022-12-18T06:28:57.077Z,80.84
2022-12-18T06:31:25.455Z,81.11
2022-12-18T06:33:53.104Z,80.79
2022-12-18T06:36:21.018Z,80.86
2022-12-18T06:38:48.672Z,80.12
2022-12-18T06:41:18.563Z,80.50
2022-12-18T06:43:46.699Z,81.25
2022-12-18T06:46:14.792Z,81.47
2022-12-18T06:48:42.644Z,80.84
2022-12-18T06:51:11.570Z,81.18
2022-12-18T06:53:39.920Z,81.49
2022-12-18T06:56:10.558Z,82.46
2022-12-18T06:58:41.167Z,81.49
2022-12-18T07:01:11.392Z,80.97
2022-12-18T07:03:41.510Z,80.82
2022-12-18T07:06:17.143Z,80.40
2022-12-18T07:08:46.044Z,80.61
2022-12-18T07:11:13.967Z,80.60
2022-12-18T07:13:44.699Z,79.47
2022-12-18T07:16:21.103Z,80.05
2022-12-18T07:18:50.088Z,80.18
2022-12-18T07:21:19.899Z,79.90
2022-12-18T07:23:47.772Z,80.65
2022-12-18T07:26:20.261Z,80.77
2022-12-18T07:28:48.829Z,80.76
2022-12-18T07:31:19.142Z,81.47
2022-12-18T07:33:47.277Z,81.84
2022-12-18T07:36:15.233Z,81.72
2022-12-18T07:38:43.175Z,81.35
2022-12-18T07:41:12.840Z,81.56
2022-12-18T07:43:42.031Z,82.33
2022-12-18T07:46:10.842Z,81.32
2022-12-18T07:48:41.894Z,80.27
2022-12-18T07:51:09.868Z,80.00
2022-12-18T07:53:38.247Z,79.80
2022-12-18T07:58:57.261Z,79.44
2022-12-18T08:01:25.717Z,78.92
2022-12-18T08:03:53.791Z,78.86
2022-12-18T08:06:23.848Z,78.12
2022-12-18T08:08:53.308Z,78.23
2022-12-18T08:11:21.650Z,78.60
2022-12-18T08:13:49.553Z,78.40
2022-12-18T08:16:18.437Z,77.86
2022-12-18T08:18:46.611Z,77.61
2022-12-18T08:21:17.333Z,76.93
2022-12-18T08:23:45.582Z,76.70
2022-12-18T08:26:13.865Z,75.36
2022-12-18T08:28:41.975Z,73.93
2022-12-18T08:31:18.745Z,74.05
2022-12-18T08:33:46.720Z,73.14
2022-12-18T08:36:14.666Z,73.51
2022-12-18T08:38:42.317Z,73.69
2022-12-18T08:41:12.498Z,73.67
2022-12-18T08:43:41.059Z,72.08
2022-12-18T08:46:08.918Z,72.69
2022-12-18T08:48:36.978Z,74.08
2022-12-18T08:51:04.774Z,74.43
2022-12-18T08:53:35.596Z,74.10
2022-12-18T08:56:04.793Z,72.72
2022-12-18T08:58:32.654Z,72.13
2022-12-18T09:01:05.179Z,73.16
2022-12-18T09:03:33.547Z,70.79
2022-12-18T09:06:01.333Z,66.99
2022-12-18T09:08:29.766Z,67.91
2022-12-18T09:10:58.036Z,66.56
2022-12-18T09:13:26.108Z,66.46
2022-12-18T09:15:55.570Z,66.67
2022-12-18T09:18:24.695Z,65.83
2022-12-18T09:20:52.420Z,65.74
2022-12-18T09:23:20.509Z,65.55
2022-12-18T09:25:48.538Z,63.65
2022-12-18T09:28:19.620Z,63.54
2022-12-18T09:30:49.387Z,65.53
2022-12-18T09:33:20.253Z,65.29
2022-12-18T09:35:48.362Z,64.68
2022-12-18T09:38:18.313Z,64.04
2022-12-18T09:40:49.705Z,62.63
2022-12-18T09:43:25.717Z,61.84
2022-12-18T09:46:03.623Z,62.14
2022-12-18T09:48:34.498Z,62.08
2022-12-18T09:51:15.763Z,62.61
2022-12-18T09:53:47.557Z,63.55
2022-12-18T09:56:18.474Z,62.93
2022-12-18T09:59:00.208Z,63.38
2022-12-18T10:01:38.788Z,61.50
2022-12-18T10:04:09.946Z,60.99
2022-12-18T10:06:46.177Z,62.69
2022-12-18T10:09:17.088Z,61.32
2022-12-18T10:11:50.166Z,63.02
2022-12-18T10:14:30.474Z,62.09
2022-12-18T10:17:16.799Z,61.41
2022-12-18T10:19:54.645Z,61.40
2022-12-18T10:22:40.999Z,61.64
2022-12-18T10:25:23.485Z,61.31
2022-12-18T10:27:54.511Z,61.75
2022-12-18T10:30:23.912Z,61.89
2022-12-18T10:32:53.108Z,62.85
2022-12-18T10:35:27.605Z,59.33
2022-12-18T10:38:16.916Z,58.95
2022-12-18T10:40:57.802Z,56.42
2022-12-18T10:43:36.696Z,54.20
2022-12-18T10:46:10.053Z,61.52
2022-12-18T10:48:48.282Z,61.20
2022-12-18T10:51:27.714Z,60.84
2022-12-18T10:54:07.890Z,59.36
2022-12-18T10:56:37.683Z,59.61
2022-12-18T10:59:13.593Z,59.09
2022-12-18T11:01:56.033Z,59.52
2022-12-18T11:04:32.636Z,58.93
2022-12-18T11:07:00.161Z,60.37
2022-12-18T11:09:30.487Z,60.10
2022-12-18T11:12:00.677Z,59.13
2022-12-18T11:14:55.708Z,58.32
2022-12-18T11:17:32.658Z,57.46
2022-12-18T11:20:02.873Z,58.05
2022-12-18T11:22:32.661Z,56.31
2022-12-18T11:28:36.819Z,54.69
2022-12-18T11:31:24.662Z,56.26
2022-12-18T11:34:28.535Z,55.18
2022-12-18T11:36:59.394Z,53.87
2022-12-18T11:39:35.785Z,51.67
2022-12-18T11:42:18.378Z,49.09
2022-12-18T11:44:55.156Z,48.72
2022-12-18T11:47:28.802Z,48.58
2022-12-18T11:49:57.166Z,47.96
2022-12-18T11:52:27.817Z,46.71
2022-12-18T11:55:21.558Z,45.54
2022-12-18T11:58:02.757Z,46.68
2022-12-18T12:00:30.580Z,46.56
2022-12-18T12:03:20.864Z,48.13
2022-12-18T12:06:04.577Z,48.41
2022-12-18T12:08:58.798Z,47.46
2022-12-18T12:11:38.517Z,48.40
2022-12-18T12:14:28.313Z,50.70
2022-12-18T12:17:14.556Z,50.90
2022-12-18T12:20:03.654Z,54.35
2022-12-18T12:22:56.369Z,54.40
2022-12-18T12:25:32.194Z,55.24
2022-12-18T12:28:05.869Z,54.33
2022-12-18T12:30:52.529Z,53.08
2022-12-18T12:33:32.579Z,51.91
2022-12-18T12:36:03.376Z,54.99
2022-12-18T12:38:52.125Z,54.50
2022-12-18T12:41:33.084Z,54.55
2022-12-18T12:44:04.319Z,54.27
2022-12-18T12:46:34.271Z,54.64
2022-12-18T12:49:11.260Z,54.86
2022-12-18T12:51:44.858Z,56.47
2022-12-18T12:54:24.562Z,55.40
2022-12-18T12:57:13.207Z,55.94
2022-12-18T12:59:51.276Z,55.94
2022-12-18T13:02:43.572Z,57.06
2022-12-18T13:05:40.197Z,56.99
2022-12-18T13:08:11.260Z,56.13
2022-12-18T13:10:40.805Z,53.77
2022-12-18T13:13:47.039Z,54.10
2022-12-18T13:16:06.942Z,53.18
2022-12-18T13:18:35.549Z,55.44
2022-12-18T13:21:10.084Z,54.04
2022-12-18T13:23:39.753Z,54.89
2022-12-18T13:26:07.812Z,55.75
2022-12-18T13:28:48.240Z,55.03
2022-12-18T13:31:39.543Z,55.88
2022-12-18T13:34:29.455Z,51.91
2022-12-18T13:37:32.949Z,52.42
2022-12-18T13:40:00.810Z,53.93
2022-12-18T13:42:41.387Z,56.74
2022-12-18T13:45:43.957Z,57.21
2022-12-18T13:48:22.689Z,57.51
2022-12-18T13:51:07.834Z,58.29
2022-12-18T13:53:56.010Z,57.94
2022-12-18T13:56:32.545Z,57.72
2022-12-18T13:59:15.455Z,59.63
2022-12-18T14:01:58.962Z,59.58
2022-12-18T14:04:29.689Z,59.72
2022-12-18T14:06:59.985Z,59.97
2022-12-18T14:09:31.509Z,59.88
2022-12-18T14:12:00.722Z,60.55
2022-12-18T14:14:32.526Z,61.81
2022-12-18T14:17:02.011Z,61.52
2022-12-18T14:19:35.342Z,60.87
2022-12-18T14:22:03.092Z,61.03
2022-12-18T14:24:31.091Z,61.29
2022-12-18T14:27:14.385Z,61.56
2022-12-18T14:29:44.058Z,56.92
2022-12-18T14:32:17.720Z,59.87
2022-12-18T14:34:50.645Z,62.14
2022-12-18T14:37:22.932Z,62.56
2022-12-18T14:39:59.238Z,63.55
2022-12-18T14:42:28.111Z,64.06
2022-12-18T14:45:39.131Z,65.38
2022-12-18T14:48:14.268Z,66.19
2022-12-18T14:50:44.755Z,66.11
2022-12-18T14:53:33.299Z,66.49
2022-12-18T14:56:01.766Z,66.92
2022-12-18T14:58:29.508Z,66.96
2022-12-18T15:00:57.363Z,66.03
2022-12-18T15:03:26.332Z,67.77
2022-12-18T15:05:54.669Z,68.19
2022-12-18T15:08:40.597Z,68.46
2022-12-18T15:11:46.487Z,69.11
2022-12-18T15:14:36.475Z,69.43
2022-12-18T15:17:27.433Z,69.82
2022-12-18T15:20:01.794Z,70.08
2022-12-18T15:22:39.107Z,70.20
2022-12-18T15:25:28.667Z,69.84
2022-12-18T15:27:57.321Z,70.45
2022-12-18T15:30:26.557Z,70.95
2022-12-18T15:33:17.744Z,70.43
2022-12-18T15:35:47.280Z,69.91
2022-12-18T15:38:15.578Z,65.79
2022-12-18T15:40:44.733Z,67.31
2022-12-18T15:43:12.944Z,69.95
2022-12-18T15:45:41.123Z,70.48
2022-12-18T15:48:21.480Z,70.73
2022-12-18T15:50:56.140Z,70.49
2022-12-18T15:53:31.430Z,71.25
2022-12-18T15:56:01.298Z,71.30
2022-12-18T15:58:29.990Z,72.00
2022-12-18T16:01:00.021Z,71.84
2022-12-18T16:03:28.439Z,71.71
2022-12-18T16:05:57.502Z,71.74
2022-12-18T16:08:26.639Z,71.66
2022-12-18T16:10:54.674Z,72.22
2022-12-18T16:13:22.391Z,72.17
2022-12-18T16:15:50.715Z,73.07
2022-12-18T16:18:19.036Z,73.17
2022-12-18T16:20:46.870Z,73.85
2022-12-18T16:23:14.946Z,73.75
2022-12-18T16:25:43.138Z,73.50
2022-12-18T16:28:11.073Z,73.70
2022-12-18T16:30:39.555Z,73.76
2022-12-18T16:33:10.563Z,73.98
2022-12-18T16:35:38.688Z,74.38
2022-12-18T16:38:06.613Z,74.30
2022-12-18T16:40:37.316Z,74.81
2022-12-18T16:43:05.217Z,74.91
2022-12-18T16:45:35.562Z,73.66
2022-12-18T16:48:04.708Z,75.39
2022-12-18T16:50:32.611Z,75.76
2022-12-18T16:53:01.808Z,75.58
2022-12-18T16:55:30.066Z,75.41
2022-12-18T16:57:58.442Z,72.82
2022-12-18T17:00:26.503Z,75.22
2022-12-18T17:02:58.067Z,75.18
2022-12-18T17:05:25.843Z,75.33
2022-12-18T17:07:53.807Z,76.16
2022-12-18T17:10:21.866Z,76.10
2022-12-18T17:12:51.330Z,76.66
2022-12-18T17:15:19.426Z,77.09
2022-12-18T17:17:51.357Z,77.48
2022-12-18T17:20:19.317Z,75.52
2022-12-18T17:22:48.742Z,77.06
2022-12-18T17:25:17.468Z,77.47
2022-12-18T17:27:46.562Z,77.65
2022-12-18T17:30:14.863Z,77.57
2022-12-18T17:32:43.199Z,77.87
2022-12-18T17:35:11.326Z,77.46
2022-12-18T17:37:41.052Z,77.66
2022-12-18T17:40:09.974Z,78.46
2022-12-18T17:42:37.797Z,77.94
2022-12-18T17:45:06.230Z,79.27
2022-12-18T17:47:34.551Z,79.84
2022-12-18T17:50:03.131Z,79.27
2022-12-18T17:52:31.208Z,79.38
2022-12-18T17:55:00.625Z,79.94
2022-12-18T17:57:28.509Z,79.67
2022-12-18T17:59:56.476Z,79.56
2022-12-18T18:02:24.669Z,79.34
2022-12-18T18:04:53.062Z,80.06
2022-12-18T18:07:20.758Z,80.13
2022-12-18T18:09:48.857Z,80.38
2022-12-18T18:12:17.249Z,80.60
2022-12-18T18:14:45.111Z,80.36
2022-12-18T18:17:15.175Z,79.81
2022-12-18T18:19:44.833Z,79.78
2022-12-18T18:22:17.212Z,79.15
2022-12-18T18:24:47.008Z,79.45
2022-12-18T18:27:14.998Z,79.86
2022-12-18T18:29:42.909Z,80.72
2022-12-18T18:32:11.577Z,81.42
2022-12-18T18:34:51.517Z,82.08
2022-12-18T18:37:20.306Z,79.83
2022-12-18T18:39:48.410Z,81.14
2022-12-18T18:42:16.507Z,81.66
2022-12-18T18:44:48.955Z,81.46
2022-12-18T18:47:17.109Z,81.22
2022-12-18T18:49:45.482Z,81.41
2022-12-18T18:52:13.685Z,81.70
2022-12-18T18:55:03.585Z,81.95
2022-12-18T18:57:30.852Z,81.24
2022-12-18T18:59:58.920Z,81.80
2022-12-18T19:02:27.059Z,81.95
2022-12-18T19:04:55.282Z,81.30
2022-12-18T19:07:30.531Z,81.00
2022-12-18T19:10:04.625Z,80.87
2022-12-18T19:12:34.647Z,81.30
2022-12-18T19:15:05.893Z,81.91
2022-12-18T19:17:34.132Z,82.11
2022-12-18T19:20:04.851Z,82.07
2022-12-18T19:22:33.206Z,82.71
2022-12-18T19:25:00.910Z,82.14
2022-12-18T19:27:29.049Z,81.70
2022-12-18T19:29:57.374Z,82.22
2022-12-18T19:32:25.344Z,82.37
2022-12-18T19:34:53.442Z,82.14
2022-12-18T19:37:21.582Z,82.94
2022-12-18T19:39:50.944Z,83.00
2022-12-18T19:42:24.586Z,82.99
2022-12-18T19:44:54.614Z,82.97
2022-12-18T19:47:22.507Z,82.89
2022-12-18T19:49:50.455Z,82.33
2022-12-18T19:52:18.533Z,82.27
2022-12-18T19:54:46.620Z,81.76
2022-12-18T19:57:14.740Z,81.09
2022-12-18T19:59:44.464Z,81.12
2022-12-18T20:02:14.452Z,78.51
2022-12-18T20:04:42.603Z,77.04
2022-12-18T20:07:10.420Z,81.54
2022-12-18T20:09:38.767Z,82.12
2022-12-18T20:12:07.918Z,82.37
2022-12-18T20:14:39.586Z,83.12
2022-12-18T20:17:08.263Z,83.21
2022-12-18T20:19:36.613Z,83.19
2022-12-18T20:22:05.562Z,83.07
2022-12-18T20:24:33.980Z,83.11
2022-12-18T20:27:03.302Z,83.27
2022-12-18T20:29:31.250Z,83.53
2022-12-18T20:32:00.202Z,84.29
2022-12-18T20:34:28.556Z,84.77
2022-12-18T20:36:56.209Z,85.41
2022-12-18T20:39:25.461Z,85.31
2022-12-18T20:41:53.827Z,85.01
2022-12-18T20:44:24.067Z,85.67
2022-12-18T20:46:57.160Z,85.80
2022-12-18T20:49:26.298Z,86.05
2022-12-18T20:51:56.632Z,85.71
2022-12-18T20:54:26.554Z,86.08
2022-12-18T20:56:55.539Z,86.17
2022-12-18T20:59:23.610Z,86.22
2022-12-18T21:01:54.996Z,86.64
2022-12-18T21:04:23.513Z,86.72
2022-12-18T21:06:58.020Z,86.78
2022-12-18T21:09:30.379Z,86.97
2022-12-18T21:12:15.478Z,87.53
2022-12-18T21:14:44.417Z,87.81
2022-12-18T21:17:12.286Z,87.84
2022-12-18T21:19:40.868Z,87.19
2022-12-18T21:22:10.073Z,88.52
2022-12-18T21:24:37.893Z,88.46
2022-12-18T21:27:05.566Z,89.17
2022-12-18T21:29:33.813Z,90.33
2022-12-18T21:32:02.696Z,90.48
2022-12-18T21:34:31.341Z,90.52
2022-12-18T21:37:00.424Z,91.36
2022-12-18T21:39:29.386Z,91.56
2022-12-18T21:41:57.519Z,91.47
2022-12-18T21:44:26.538Z,88.67
2022-12-18T21:46:59.831Z,85.54
2022-12-18T21:49:31.747Z,85.48
2022-12-18T21:52:00.544Z,88.00
2022-12-18T21:54:29.246Z,90.57
2022-12-18T21:56:59.118Z,91.99
2022-12-18T21:59:34.865Z,92.73
2022-12-18T22:02:21.798Z,92.56
2022-12-18T22:04:49.829Z,92.82
2022-12-18T22:07:17.428Z,92.12
2022-12-18T22:09:45.362Z,92.68
2022-12-18T22:12:13.641Z,92.33
2022-12-18T22:14:41.424Z,92.64
2022-12-18T22:17:09.139Z,92.92
2022-12-18T22:19:42.849Z,92.51
2022-12-18T22:22:11.013Z,92.04
2022-12-18T22:24:39.109Z,92.46
2022-12-18T22:27:06.690Z,92.28
2022-12-18T22:29:35.293Z,92.73
2022-12-18T22:32:04.574Z,92.81
2022-12-18T22:34:36.588Z,92.61
2022-12-18T22:37:05.091Z,92.26
2022-12-18T22:39:33.071Z,92.93
2022-12-18T22:42:01.270Z,92.58
2022-12-18T22:44:29.461Z,92.76
2022-12-18T22:47:06.921Z,91.80
2022-12-18T22:49:36.362Z,92.58
2022-12-18T22:52:04.883Z,92.72
2022-12-18T22:54:33.119Z,92.73
2022-12-18T22:57:01.086Z,92.35
2022-12-18T22:59:28.749Z,92.35
2022-12-18T23:01:59.060Z,92.34
2022-12-18T23:04:27.689Z,90.88
2022-12-18T23:06:58.811Z,91.46
2022-12-18T23:09:26.375Z,91.78
2022-12-18T23:11:54.341Z,92.13
2022-12-18T23:14:22.016Z,91.99
2022-12-18T23:16:53.460Z,92.23
2022-12-18T23:19:22.689Z,90.34
2022-12-18T23:21:51.797Z,91.62
2022-12-18T23:24:22.394Z,91.93
2022-12-18T23:26:50.031Z,91.76
2022-12-18T23:29:17.701Z,92.06
2022-12-18T23:31:46.239Z,92.03
2022-12-18T23:34:14.702Z,91.87
2022-12-18T23:36:46.385Z,92.00
2022-12-18T23:39:17.460Z,92.52
2022-12-18T23:41:58.659Z,92.25
2022-12-18T23:44:26.615Z,91.96
2022-12-18T23:46:54.801Z,91.76
2022-12-18T23:49:22.693Z,92.31
2022-12-18T23:51:50.941Z,92.28
2022-12-18T23:54:22.364Z,92.52
2022-12-18T23:56:59.690Z,92.39
2022-12-18T23:59:30.643Z,92.23
